Time;durP1;ratioP1;P1;durP2;ratioP2;P2;SDS_P1;SDS_P2;PMS_P1;PMS_P2;Temp;Humidity;BMP_temperature;BMP_pressure;BME280_temperature;BME280_humidity;BME280_pressure;Samples;Min_cycle;Max_cycle;Signal;HPM_P1;HPM_P2
2022/07/28 00:00:19;;;;;;;1999.90;999.90;;;;;;;18.02;100.00;94761.09;5098060;28;20279;-68
2022/07/28 00:02:44;;;;;;;1999.90;999.90;;;;;;;17.99;100.00;94744.69;5097610;28;20183;-67
2022/07/28 00:05:10;;;;;;;1999.90;999.90;;;;;;;17.96;100.00;94712.44;5097812;28;20243;-71
2022/07/28 00:07:36;;;;;;;1999.90;999.90;;;;;;;17.90;100.00;94675.63;5097644;28;20184;-68
2022/07/28 00:10:01;;;;;;;1999.90;999.90;;;;;;;17.94;100.00;94643.06;5097442;28;20303;-67
2022/07/28 00:12:27;;;;;;;1999.90;999.90;;;;;;;17.88;100.00;94606.28;5097525;28;20188;-72
2022/07/28 00:14:52;;;;;;;1999.90;999.90;;;;;;;17.86;100.00;94539.66;5097728;28;20187;-71
2022/07/28 00:17:17;;;;;;;1999.90;999.90;;;;;;;17.86;100.00;94520.31;5097245;28;20184;-71
2022/07/28 00:19:43;;;;;;;1999.90;999.90;;;;;;;17.79;100.00;94509.63;5097122;28;20192;-62
2022/07/28 00:22:08;;;;;;;1999.90;999.90;;;;;;;17.81;100.00;94490.59;5097859;28;20212;-63
2022/07/28 00:24:34;;;;;;;1999.90;999.90;;;;;;;17.80;100.00;94486.28;5097779;28;20207;-64
2022/07/28 00:26:59;;;;;;;1999.90;999.90;;;;;;;17.77;100.00;94473.44;5097566;28;20252;-65
2022/07/28 00:29:25;;;;;;;1999.90;999.90;;;;;;;17.73;100.00;94470.06;5097253;28;20194;-63
2022/07/28 00:31:51;;;;;;;1999.90;999.90;;;;;;;17.56;100.00;94446.91;5097373;28;20184;-65
2022/07/28 00:34:16;;;;;;;1999.90;999.90;;;;;;;17.56;100.00;94431.06;5097750;28;20266;-61
2022/07/28 00:36:42;;;;;;;1999.90;999.90;;;;;;;17.47;100.00;94419.34;5096813;28;20200;-64
2022/07/28 00:39:07;;;;;;;1999.90;999.90;;;;;;;17.48;100.00;94398.78;5097697;28;20183;-65
2022/07/28 00:41:33;;;;;;;1999.90;999.90;;;;;;;17.38;100.00;94386.25;5097338;28;20182;-66
2022/07/28 00:43:58;;;;;;;1999.90;999.90;;;;;;;17.43;100.00;94375.34;5097411;28;20218;-65
2022/07/28 00:46:23;;;;;;;1999.90;999.90;;;;;;;17.38;100.00;94361.41;5097125;28;20180;-64
2022/07/28 00:48:51;;;;;;;1999.90;999.90;;;;;;;17.36;100.00;94350.06;5096971;28;20180;-67
2022/07/28 00:51:19;;;;;;;1999.90;999.90;;;;;;;17.36;100.00;94336.28;5097456;28;20212;-65
2022/07/28 00:53:45;;;;;;;1999.90;999.90;;;;;;;17.29;100.00;94323.59;5097145;28;20180;-63
2022/07/28 00:56:12;;;;;;;1999.90;999.90;;;;;;;17.28;100.00;94322.09;5096713;28;20607;-64
2022/07/28 00:58:38;;;;;;;1999.90;999.90;;;;;;;17.30;100.00;94303.03;5096914;28;20179;-65
2022/07/28 01:01:06;;;;;;;1999.90;999.90;;;;;;;17.23;100.00;94297.13;5097014;28;20211;-62
2022/07/28 01:03:32;;;;;;;1999.90;999.90;;;;;;;17.18;100.00;94281.22;5096800;28;20233;-63
2022/07/28 01:05:58;;;;;;;1999.90;999.90;;;;;;;17.20;100.00;94264.97;5096756;28;20218;-63
2022/07/28 01:08:54;;;;;;;1999.90;999.90;;;;;;;17.20;100.00;94260.22;5097217;28;20180;-65
2022/07/28 01:11:58;;;;;;;1999.90;999.90;;;;;;;17.17;100.00;94247.38;5097208;28;20216;-62
2022/07/28 01:14:35;;;;;;;1999.90;999.90;;;;;;;17.11;100.00;94223.66;5058661;28;20290;-63
2022/07/28 01:17:09;;;;;;;1999.90;999.90;;;;;;;17.05;100.00;94218.03;5097630;28;20215;-60
2022/07/28 01:19:45;;;;;;;1999.90;999.90;;;;;;;17.06;100.00;94205.00;5097092;28;20198;-60
2022/07/28 01:22:16;;;;;;;1999.90;999.90;;;;;;;16.99;100.00;94188.81;5096646;28;20195;-62
2022/07/28 01:24:59;;;;;;;1999.90;999.90;;;;;;;16.93;100.00;94174.19;5096430;28;20302;-64
2022/07/28 01:27:40;;;;;;;1999.90;999.90;;;;;;;16.94;100.00;94159.16;5097106;28;20214;-61
2022/07/28 01:30:45;;;;;;;1999.90;999.90;;;;;;;16.96;100.00;94148.38;5096985;28;20248;-66
2022/07/28 01:33:32;;;;;;;1999.90;999.90;;;;;;;16.88;100.00;94144.47;5096457;28;20299;-61
2022/07/28 01:36:11;;;;;;;1999.90;999.90;;;;;;;16.83;100.00;94114.81;5096626;28;20183;-62
2022/07/28 01:38:38;;;;;;;1999.90;999.90;;;;;;;16.84;100.00;94099.78;5096208;28;20194;-63
2022/07/28 01:41:08;;;;;;;1999.90;999.90;;;;;;;16.77;100.00;94086.38;5096956;28;20194;-62
2022/07/28 01:43:38;;;;;;;1999.90;999.90;;;;;;;16.84;100.00;94077.72;5096289;28;20229;-60
2022/07/28 01:46:04;;;;;;;1999.90;999.90;;;;;;;16.60;100.00;94057.75;5096196;28;20184;-63
2022/07/28 01:48:32;;;;;;;1999.90;999.90;;;;;;;16.72;100.00;94049.22;5095238;28;20187;-63
2022/07/28 01:50:58;;;;;;;1999.90;999.90;;;;;;;16.67;100.00;94040.84;5096565;28;20208;-66
2022/07/28 01:53:25;;;;;;;1999.90;999.90;;;;;;;16.66;100.00;94042.06;5096074;28;20205;-66
2022/07/28 01:55:52;;;;;;;1999.90;999.90;;;;;;;16.65;100.00;94037.78;5096903;28;20211;-66
2022/07/28 01:58:20;;;;;;;1999.90;999.90;;;;;;;16.65;100.00;94032.28;5096166;28;20188;-64
2022/07/28 02:00:51;;;;;;;1999.90;999.90;;;;;;;16.57;100.00;94029.13;5095810;28;20187;-67
2022/07/28 02:03:19;;;;;;;1999.90;999.90;;;;;;;16.61;100.00;94015.16;5096423;28;20203;-66
2022/07/28 02:05:49;;;;;;;1999.90;999.90;;;;;;;16.60;100.00;94019.16;5096466;28;20191;-63
2022/07/28 02:08:17;;;;;;;1999.90;999.90;;;;;;;16.58;100.00;94016.13;5096593;28;20244;-64
2022/07/28 02:11:38;;;;;;;1999.90;999.90;;;;;;;16.55;100.00;94003.28;5096410;28;20211;-60
2022/07/28 02:13:29;;;;;;;1999.90;999.90;;;;;;;16.44;100.00;93990.06;5113945;28;20192;-60
2022/07/28 02:15:55;;;;;;;1999.90;999.90;;;;;;;16.50;100.00;93976.38;5096036;28;20180;-64
2022/07/28 02:18:21;;;;;;;1999.90;999.90;;;;;;;16.49;100.00;93964.59;5095659;28;20198;-61
2022/07/28 02:20:48;;;;;;;1999.90;999.90;;;;;;;16.46;100.00;93926.97;5095782;28;20183;-61
2022/07/28 02:23:14;;;;;;;1999.90;999.90;;;;;;;16.40;100.00;93906.81;5095456;28;20204;-63
2022/07/28 02:25:40;;;;;;;1999.90;999.90;;;;;;;16.34;100.00;93901.19;5095950;28;20176;-63
2022/07/28 02:28:08;;;;;;;1999.90;999.90;;;;;;;16.35;100.00;93913.75;5095566;28;20190;-62
2022/07/28 02:30:39;;;;;;;1999.90;999.90;;;;;;;16.37;100.00;93914.03;5113762;28;20188;-62
2022/07/28 02:33:20;;;;;;;1999.90;999.90;;;;;;;16.37;100.00;93907.75;5096033;28;20228;-62
2022/07/28 02:36:06;;;;;;;1999.90;999.90;;;;;;;16.38;100.00;93904.53;5096221;28;20247;-63
2022/07/28 02:38:38;;;;;;;1999.90;999.90;;;;;;;16.36;100.00;93901.47;5095520;28;20216;-63
2022/07/28 02:41:13;;;;;;;1999.90;999.90;;;;;;;16.30;100.00;93881.34;5095575;28;20275;-62
2022/07/28 02:43:43;;;;;;;1999.90;999.90;;;;;;;16.32;100.00;93873.34;5095942;28;20207;-62
2022/07/28 02:46:12;;;;;;;1999.90;999.90;;;;;;;16.36;100.00;93873.91;5095719;28;20223;-64
2022/07/28 02:48:40;;;;;;;1999.90;999.90;;;;;;;16.29;100.00;93874.31;5095700;28;20223;-60
2022/07/28 02:51:08;;;;;;;1999.90;999.90;;;;;;;16.28;100.00;93850.75;5113163;28;20221;-61
2022/07/28 02:53:35;;;;;;;1999.90;999.90;;;;;;;16.29;100.00;93852.25;5095392;28;20191;-63
2022/07/28 02:56:02;;;;;;;1999.90;999.90;;;;;;;16.27;100.00;93853.97;5095375;28;20321;-62
2022/07/28 02:58:28;;;;;;;1999.90;999.90;;;;;;;16.24;100.00;93850.19;5095475;28;20179;-61
2022/07/28 03:00:55;;;;;;;1999.90;999.90;;;;;;;16.17;100.00;93839.56;5098440;28;20188;-63
2022/07/28 03:03:22;;;;;;;1999.90;999.90;;;;;;;16.17;100.00;93828.53;5098612;28;20233;-62
2022/07/28 03:05:48;;;;;;;1999.90;999.90;;;;;;;16.11;100.00;93819.41;5098891;28;20184;-62
2022/07/28 03:08:15;;;;;;;1999.90;999.90;;;;;;;16.13;100.00;93811.44;5098242;28;20183;-62
2022/07/28 03:10:41;;;;;;;1999.90;999.90;;;;;;;16.14;100.00;93804.69;5098590;28;20215;-64
2022/07/28 03:13:06;;;;;;;1999.90;999.90;;;;;;;16.13;100.00;93810.69;5098271;28;20184;-60
2022/07/28 03:15:34;;;;;;;1999.90;999.90;;;;;;;16.07;100.00;93802.34;5098540;28;20188;-63
2022/07/28 03:18:00;;;;;;;1999.90;999.90;;;;;;;16.02;100.00;93799.50;5098599;28;20271;-63
2022/07/28 03:20:26;;;;;;;1999.90;999.90;;;;;;;15.96;100.00;93791.13;5098531;28;20251;-62
2022/07/28 03:22:51;;;;;;;1999.90;999.90;;;;;;;15.94;100.00;93777.09;5098432;28;20204;-62
2022/07/28 03:25:26;;;;;;;1999.90;999.90;;;;;;;15.95;100.00;93762.09;5099039;28;20270;-66
2022/07/28 03:27:53;;;;;;;1999.90;999.90;;;;;;;15.93;100.00;93759.06;5098582;28;20205;-62
2022/07/28 03:30:25;;;;;;;1999.90;999.90;;;;;;;15.96;100.00;93736.06;5098175;28;20180;-60
2022/07/28 03:32:57;;;;;;;1999.90;999.90;;;;;;;15.96;100.00;93724.31;5097933;28;20187;-64
2022/07/28 03:35:23;;;;;;;1999.90;999.90;;;;;;;15.96;100.00;93722.31;5099034;28;20184;-66
2022/07/28 03:37:59;;;;;;;1999.90;999.90;;;;;;;15.98;100.00;93705.31;5098295;28;20195;-62
2022/07/28 03:40:30;;;;;;;1999.90;999.90;;;;;;;15.96;100.00;93700.28;5099018;28;20198;-62
2022/07/28 03:42:58;;;;;;;1999.90;999.90;;;;;;;15.89;100.00;93706.16;5098101;28;20270;-64
2022/07/28 03:45:25;;;;;;;1999.90;999.90;;;;;;;15.88;100.00;93674.38;5098136;28;20186;-69
2022/07/28 03:47:51;;;;;;;1999.90;999.90;;;;;;;15.88;100.00;93657.13;5098265;28;20207;-65
2022/07/28 03:50:17;;;;;;;1999.90;999.90;;;;;;;15.91;100.00;93629.38;5097967;28;20183;-66
2022/07/28 03:52:42;;;;;;;1999.90;999.90;;;;;;;15.88;100.00;93470.66;5098105;28;20186;-66
2022/07/28 03:55:08;;;;;;;1999.90;999.90;;;;;;;15.88;100.00;93465.16;5097748;28;20188;-65
2022/07/28 03:57:34;;;;;;;1999.90;999.90;;;;;;;15.92;100.00;93448.44;5098060;28;20282;-63
2022/07/28 03:59:59;;;;;;;1999.90;999.90;;;;;;;15.96;100.00;93448.97;5097735;28;20212;-64
2022/07/28 04:02:25;;;;;;;1999.90;999.90;;;;;;;16.06;100.00;93458.56;5098382;28;20183;-66
2022/07/28 04:04:50;;;;;;;1999.90;999.90;;;;;;;16.16;100.00;93457.19;5097974;28;20206;-64
2022/07/28 04:07:15;;;;;;;1999.90;999.90;;;;;;;16.32;100.00;93465.59;5098144;28;20183;-65
2022/07/28 04:09:41;;;;;;;1999.90;999.90;;;;;;;16.33;100.00;93500.16;5097638;28;20215;-66
2022/07/28 04:12:06;;;;;;;1999.90;999.90;;;;;;;16.46;100.00;93529.38;5096762;28;20195;-63
2022/07/28 04:14:32;;;;;;;1999.90;999.90;;;;;;;16.50;100.00;93547.19;5097467;28;20207;-62
2022/07/28 04:16:57;;;;;;;1999.90;999.90;;;;;;;16.75;100.00;93567.75;5097998;28;20215;-61
2022/07/28 04:19:22;;;;;;;1999.90;999.90;;;;;;;16.81;100.00;93598.88;5097851;28;20184;-62
2022/07/28 04:21:48;;;;;;;1999.90;999.90;;;;;;;16.92;100.00;93635.59;5097632;28;20262;-64
2022/07/28 04:24:13;;;;;;;1999.90;999.90;;;;;;;16.76;100.00;93663.00;5097236;28;20212;-63
2022/07/28 04:26:38;;;;;;;1999.90;999.90;;;;;;;16.61;100.00;93676.84;5097512;28;20188;-65
2022/07/28 04:29:04;;;;;;;1999.90;999.90;;;;;;;16.73;100.00;93688.78;5097792;28;20184;-63
2022/07/28 04:31:30;;;;;;;1999.90;999.90;;;;;;;16.60;100.00;93689.13;5097111;28;20179;-62
2022/07/28 04:33:55;;;;;;;1999.90;999.90;;;;;;;16.42;100.00;93672.88;5097761;28;20176;-60
2022/07/28 04:36:20;;;;;;;1999.90;999.90;;;;;;;16.47;100.00;93658.44;5097215;28;20186;-62
2022/07/28 04:38:46;;;;;;;1999.90;999.90;;;;;;;16.48;100.00;93656.41;5097182;28;20191;-62
2022/07/28 04:41:11;;;;;;;1999.90;999.90;;;;;;;16.30;100.00;93638.91;5097286;28;20198;-64
2022/07/28 04:43:37;;;;;;;1999.90;999.90;;;;;;;16.22;100.00;93632.28;5097061;28;20207;-61
2022/07/28 04:46:03;;;;;;;1999.90;999.90;;;;;;;16.29;100.00;93609.81;5097034;28;20184;-62
2022/07/28 04:48:28;;;;;;;1999.90;999.90;;;;;;;16.30;100.00;93583.81;5097626;28;20205;-63
2022/07/28 04:50:53;;;;;;;1999.90;999.90;;;;;;;16.34;100.00;93576.09;5096924;28;20196;-70
2022/07/28 04:53:20;;;;;;;1999.90;999.90;;;;;;;16.56;100.00;93575.59;5096946;28;20321;-64
2022/07/28 04:55:46;;;;;;;1999.90;999.90;;;;;;;16.84;100.00;93589.63;5096922;28;20278;-65
2022/07/28 04:58:12;;;;;;;1999.90;999.90;;;;;;;16.99;100.00;93637.94;5096947;28;20183;-65
2022/07/28 05:00:37;;;;;;;1999.90;999.90;;;;;;;16.79;100.00;93667.56;5096875;28;20196;-67
2022/07/28 05:03:04;;;;;;;1999.90;999.90;;;;;;;16.61;100.00;93687.16;5096392;28;20184;-66
2022/07/28 05:05:29;;;;;;;1999.90;999.90;;;;;;;16.90;100.00;93673.94;5096929;28;20191;-65
2022/07/28 05:07:57;;;;;;;1999.90;999.90;;;;;;;17.79;100.00;93719.69;5096564;28;20179;-66
2022/07/28 05:10:23;;;;;;;1999.90;999.90;;;;;;;18.90;100.00;93802.88;5096709;28;20203;-64
2022/07/28 05:12:49;;;;;;;1999.90;999.90;;;;;;;19.33;100.00;93970.50;5096788;28;20264;-63
2022/07/28 05:15:14;;;;;;;1999.90;999.90;;;;;;;19.51;100.00;94077.34;5096510;28;20252;-62
2022/07/28 05:17:40;;;;;;;1999.90;999.90;;;;;;;19.79;100.00;94168.97;5096342;28;20184;-63
2022/07/28 05:20:07;;;;;;;1999.90;999.90;;;;;;;19.73;100.00;94227.13;5096499;28;20196;-62
2022/07/28 05:22:47;;;;;;;1999.90;999.90;;;;;;;20.28;100.00;94287.84;5096529;28;20188;-65
2022/07/28 05:25:20;;;;;;;1999.90;999.90;;;;;;;21.78;100.00;94380.63;5096426;28;20207;-62
2022/07/28 05:27:47;;;;;;;1999.90;999.90;;;;;;;21.98;100.00;94582.72;5096715;28;20188;-62
2022/07/28 05:30:13;;;;;;;1999.90;999.90;;;;;;;22.27;100.00;94663.81;5096839;28;20274;-64
2022/07/28 05:32:39;;;;;;;1999.90;999.90;;;;;;;22.74;100.00;94753.44;5096360;28;20210;-67
2022/07/28 05:35:05;;;;;;;1999.90;999.90;;;;;;;22.74;100.00;94856.47;5114205;28;20184;-67
2022/07/28 05:37:35;;;;;;;1999.90;999.90;;;;;;;23.27;100.00;94846.22;5096524;28;20202;-67
2022/07/28 05:40:12;;;;;;;1999.90;999.90;;;;;;;23.78;100.00;94929.59;5096656;28;20202;-71
2022/07/28 05:42:39;;;;;;;1999.90;999.90;;;;;;;23.97;100.00;95022.06;5096632;28;20255;-72
2022/07/28 05:45:07;;;;;;;1999.90;999.90;;;;;;;24.11;100.00;95035.09;5096076;28;20210;-73
2022/07/28 05:47:40;;;;;;;1999.90;999.90;;;;;;;23.63;100.00;95045.41;5096188;28;20184;-65
2022/07/28 05:50:05;;;;;;;1999.90;999.90;;;;;;;23.97;100.00;95044.38;5096092;28;20213;-58
2022/07/28 05:52:31;;;;;;;1999.90;999.90;;;;;;;24.49;100.00;95081.94;5096536;28;20191;-58
2022/07/28 05:54:56;;;;;;;1999.90;999.90;;;;;;;22.86;100.00;95051.03;5095850;28;20187;-59
2022/07/28 05:57:23;;;;;;;1999.90;999.90;;;;;;;22.93;100.00;94999.69;5095883;28;20180;-59
2022/07/28 05:59:48;;;;;;;1999.90;999.90;;;;;;;23.51;100.00;95015.91;5095902;28;20211;-63
2022/07/28 06:02:14;;;;;;;1999.90;999.90;;;;;;;23.34;100.00;95006.66;5095684;28;20276;-59
2022/07/28 06:04:39;;;;;;;1999.90;999.90;;;;;;;23.54;100.00;95048.38;5095969;28;20291;-64
2022/07/28 06:07:04;;;;;;;1999.90;999.90;;;;;;;23.79;100.00;95031.59;5096472;28;20191;-57
2022/07/28 06:09:30;;;;;;;1999.90;999.90;;;;;;;23.86;100.00;95047.81;5096102;28;20195;-69
2022/07/28 06:11:55;;;;;;;1999.90;999.90;;;;;;;23.70;100.00;95036.56;5095454;28;20207;-65
2022/07/28 06:14:21;;;;;;;1999.90;999.90;;;;;;;24.56;100.00;95071.06;5095730;28;20297;-63
2022/07/28 06:16:49;;;;;;;1999.90;999.90;;;;;;;24.78;100.00;95070.41;5095710;28;20180;-65
2022/07/28 06:19:16;;;;;;;1999.90;999.90;;;;;;;25.07;100.00;95103.53;5095423;28;20187;-64
2022/07/28 06:21:41;;;;;;;1999.90;999.90;;;;;;;24.02;100.00;95093.88;5095292;28;20188;-61
2022/07/28 06:24:06;;;;;;;1999.90;999.90;;;;;;;24.43;100.00;95084.72;5095939;28;20210;-58
2022/07/28 06:26:33;;;;;;;1999.90;999.90;;;;;;;24.89;100.00;95110.34;5096188;28;20191;-61
2022/07/28 06:28:58;;;;;;;1999.90;999.90;;;;;;;24.53;100.00;95110.41;5095434;28;20180;-60
2022/07/28 06:31:24;;;;;;;1999.90;999.90;;;;;;;25.09;100.00;95109.34;5095865;28;20252;-59
2022/07/28 06:33:49;;;;;;;1999.90;999.90;;;;;;;25.30;100.00;95133.06;5095989;28;20179;-64
2022/07/28 06:36:15;;;;;;;1999.90;999.90;;;;;;;25.42;100.00;95129.03;5098670;28;20233;-60
2022/07/28 06:38:40;;;;;;;1999.90;999.90;;;;;;;25.85;100.00;95147.13;5099416;28;20184;-60
2022/07/28 06:41:06;;;;;;;1999.90;999.90;;;;;;;25.47;100.00;95147.09;5099139;28;20214;-64
2022/07/28 06:43:32;;;;;;;1999.90;999.90;;;;;;;25.61;100.00;95148.91;5098784;28;20249;-60
2022/07/28 06:45:57;;;;;;;1999.90;999.90;;;;;;;25.42;100.00;95146.56;5098623;28;20188;-68
2022/07/28 06:48:22;;;;;;;1999.90;999.90;;;;;;;26.28;100.00;95154.00;5098877;28;20184;-67
2022/07/28 06:50:48;;;;;;;1999.90;999.90;;;;;;;27.15;100.00;95157.84;5098909;28;20183;-64
2022/07/28 06:53:13;;;;;;;1999.90;999.90;;;;;;;27.55;100.00;95173.97;5098765;28;20260;-68
2022/07/28 06:55:38;;;;;;;1999.90;999.90;;;;;;;27.65;100.00;95166.75;5099255;28;20187;-64
2022/07/28 06:58:04;;;;;;;1999.90;999.90;;;;;;;28.64;100.00;95164.44;5098809;28;20282;-64
2022/07/28 07:00:30;;;;;;;1999.90;999.90;;;;;;;28.93;100.00;95180.47;5098895;28;20191;-60
2022/07/28 07:02:55;;;;;;;1999.90;999.90;;;;;;;28.26;100.00;95175.50;5098347;28;20188;-69
2022/07/28 07:05:20;;;;;;;1999.90;999.90;;;;;;;27.66;100.00;95173.91;5098546;28;20226;-66
2022/07/28 07:07:46;;;;;;;1999.90;999.90;;;;;;;27.45;100.00;95163.56;5098432;28;20251;-67
2022/07/28 07:10:11;;;;;;;1999.90;999.90;;;;;;;27.87;100.00;95161.00;5098568;28;20205;-67
2022/07/28 07:12:37;;;;;;;1999.90;999.90;;;;;;;28.05;100.00;95171.59;5098487;28;20172;-63
2022/07/28 07:15:04;;;;;;;1999.90;999.90;;;;;;;29.01;94.75;95164.50;5098438;28;20187;-64
2022/07/28 07:17:29;;;;;;;1999.90;999.90;;;;;;;29.42;89.81;95167.88;5098450;28;20190;-64
2022/07/28 07:19:55;;;;;;;1999.90;999.90;;;;;;;30.12;81.50;95187.09;5098859;28;20262;-60
2022/07/28 07:22:20;;;;;;;1999.90;999.90;;;;;;;29.86;82.28;95170.81;5116256;28;20187;-60
2022/07/28 07:24:46;;;;;;;1999.90;999.90;;;;;;;28.17;93.64;95159.00;5098849;28;20204;-57
2022/07/28 07:27:11;;;;;;;1999.90;999.90;;;;;;;28.67;94.60;95149.31;5098346;28;20172;-59
2022/07/28 07:29:37;;;;;;;1999.90;999.90;;;;;;;29.34;88.17;95152.88;5098532;28;20280;-60
2022/07/28 07:32:02;;;;;;;1999.90;999.90;;;;;;;29.53;85.91;95160.03;5097968;28;20175;-58
2022/07/28 07:34:27;;;;;;;1999.90;999.90;;;;;;;29.21;85.87;95161.25;5098881;28;20188;-58
2022/07/28 07:36:53;;;;;;;1999.90;999.90;;;;;;;29.24;86.29;95160.19;5098053;28;20179;-61
2022/07/28 07:39:18;;;;;;;1999.90;999.90;;;;;;;29.12;87.77;95155.97;5098273;28;20176;-63
2022/07/28 07:41:44;;;;;;;1999.90;999.90;;;;;;;29.47;87.05;95150.13;5098226;28;20179;-61
2022/07/28 07:44:09;;;;;;;1999.90;999.90;;;;;;;29.67;82.56;95158.06;5097890;28;20215;-61
2022/07/28 07:46:35;;;;;;;1999.90;999.90;;;;;;;29.87;83.40;95165.97;5096890;28;20171;-59
2022/07/28 07:49:01;;;;;;;1999.90;999.90;;;;;;;29.10;88.72;95144.50;5098070;28;20184;-62
2022/07/28 07:51:26;;;;;;;1999.90;999.90;;;;;;;28.10;93.46;95145.50;5098221;28;20175;-59
2022/07/28 07:53:51;;;;;;;1999.90;999.90;;;;;;;30.11;82.97;95152.50;5097959;28;20286;-65
2022/07/28 07:56:17;;;;;;;1999.90;999.90;;;;;;;30.18;78.44;95165.22;5097922;28;20194;-58
2022/07/28 07:58:42;;;;;;;1999.90;999.90;;;;;;;29.86;79.59;95159.56;5097624;28;20176;-68
2022/07/28 08:01:11;;;;;;;1999.90;999.90;;;;;;;30.41;81.33;95149.47;5098405;28;20188;-66
2022/07/28 08:03:36;;;;;;;1999.90;999.90;;;;;;;30.69;77.10;95158.16;5098090;28;20275;-62
2022/07/28 08:06:01;;;;;;;1999.90;999.90;;;;;;;31.85;70.50;95167.88;5097974;28;20222;-64
2022/07/28 08:08:27;;;;;;;1999.90;999.90;;;;;;;29.84;77.18;95167.81;5097895;28;20206;-66
2022/07/28 08:10:53;;;;;;;1999.90;999.90;;;;;;;29.54;80.74;95163.59;5097807;28;20184;-64
2022/07/28 08:13:19;;;;;;;1999.90;999.90;;;;;;;28.99;84.90;95150.22;5098231;28;20191;-61
2022/07/28 08:15:45;;;;;;;1999.90;999.90;;;;;;;29.70;81.68;95146.50;5097667;28;20194;-62
2022/07/28 08:18:11;;;;;;;1999.90;999.90;;;;;;;29.13;85.24;95143.44;5115536;28;20171;-63
2022/07/28 08:20:36;;;;;;;1999.90;999.90;;;;;;;29.70;77.78;95151.38;5097969;28;20243;-63
2022/07/28 08:23:01;;;;;;;1999.90;999.90;;;;;;;30.76;75.99;95146.28;5097797;28;20175;-64
2022/07/28 08:25:27;;;;;;;1999.90;999.90;;;;;;;30.14;78.68;95153.47;5097574;28;20196;-64
2022/07/28 08:27:52;;;;;;;1999.90;999.90;;;;;;;30.34;76.74;95170.59;5115522;28;20189;-68
2022/07/28 08:30:18;;;;;;;1999.90;999.90;;;;;;;29.13;84.75;95149.81;5097419;28;20183;-68
2022/07/28 08:32:44;;;;;;;1999.90;999.90;;;;;;;30.81;75.88;95151.81;5097133;28;20284;-62
2022/07/28 08:35:09;;;;;;;1999.90;999.90;;;;;;;29.85;76.40;95163.69;5097146;28;20207;-67
2022/07/28 08:37:36;;;;;;;1999.90;999.90;;;;;;;30.15;80.66;95155.03;5097100;28;20191;-73
2022/07/28 08:40:03;;;;;;;1999.90;999.90;;;;;;;31.15;74.66;95151.91;5097601;28;20176;-65
2022/07/28 08:42:37;;;;;;;1999.90;999.90;;;;;;;33.02;64.98;95155.91;5097253;28;20180;-69
2022/07/28 08:45:06;;;;;;;1999.90;999.90;;;;;;;30.93;69.65;95155.94;5097156;28;20198;-71
2022/07/28 08:47:34;;;;;;;1999.90;999.90;;;;;;;31.34;68.86;95158.19;5096806;28;20180;-61
2022/07/28 08:50:01;;;;;;;1999.90;999.90;;;;;;;30.43;75.55;95155.31;5097103;28;20274;-67
2022/07/28 08:52:31;;;;;;;1999.90;999.90;;;;;;;30.49;75.65;95156.00;5096893;28;20187;-63
2022/07/28 08:54:58;;;;;;;1999.90;999.90;;;;;;;32.22;68.13;95156.19;5097368;28;20175;-63
2022/07/28 08:57:44;;;;;;;1999.90;999.90;;;;;;;30.80;72.97;95149.53;5096172;28;20251;-62
2022/07/28 09:00:11;;;;;;;1999.90;999.90;;;;;;;31.32;71.53;95166.47;5097240;28;20268;-63
2022/07/28 09:02:48;;;;;;;1999.90;999.90;;;;;;;30.73;73.33;95173.50;5114633;28;20179;-63
2022/07/28 09:05:14;;;;;;;1999.90;999.90;;;;;;;29.14;81.24;95156.22;5097090;28;20199;-64
2022/07/28 09:07:40;;;;;;;1999.90;999.90;;;;;;;30.78;74.74;95157.78;5096969;28;20180;-61
2022/07/28 09:10:10;;;;;;;1999.90;999.90;;;;;;;30.02;75.88;95150.09;5096912;28;20222;-60
2022/07/28 09:12:39;;;;;;;1999.90;999.90;;;;;;;32.86;65.72;95156.38;5096323;28;20195;-62
2022/07/28 09:15:07;;;;;;;1999.90;999.90;;;;;;;31.70;65.31;95162.03;5096707;28;20180;-65
2022/07/28 09:17:33;;;;;;;1999.90;999.90;;;;;;;30.31;74.85;95162.44;5096660;28;20176;-65
2022/07/28 09:19:59;;;;;;;1999.90;999.90;;;;;;;30.34;73.98;95164.94;5096430;28;20183;-64
2022/07/28 09:22:25;;;;;;;1999.90;999.90;;;;;;;29.69;76.57;95155.47;5114405;28;20195;-66
2022/07/28 09:24:50;;;;;;;1999.90;999.90;;;;;;;29.93;78.78;95141.28;5096657;28;20203;-62
2022/07/28 09:27:16;;;;;;;1999.90;999.90;;;;;;;30.73;74.88;95150.16;5096285;28;20172;-69
2022/07/28 09:29:57;;;;;;;1999.90;999.90;;;;;;;30.23;74.88;95158.75;5096973;28;20183;-68
2022/07/28 09:32:24;;;;;;;1999.90;999.90;;;;;;;30.19;76.26;95161.13;5096561;28;20184;-71
2022/07/28 09:34:51;;;;;;;1999.90;999.90;;;;;;;30.17;74.56;95152.44;5114357;28;20183;-66
2022/07/28 09:37:18;;;;;;;1999.90;999.90;;;;;;;29.48;76.94;95154.47;5096268;28;20202;-69
2022/07/28 09:39:45;;;;;;;1999.90;999.90;;;;;;;30.51;74.75;95137.22;5096124;28;20242;-71
2022/07/28 09:42:10;;;;;;;1999.90;999.90;;;;;;;31.50;70.47;95153.50;5095827;28;20272;-69
2022/07/28 09:44:36;;;;;;;1999.90;999.90;;;;;;;31.78;68.78;95143.13;5096511;28;20307;-68
2022/07/28 09:47:34;;;;;;;1999.90;999.90;;;;;;;30.11;72.11;95140.47;5095961;28;20178;-66
2022/07/28 09:50:03;;;;;;;1999.90;999.90;;;;;;;31.17;70.56;95149.28;5096101;28;20184;-64
2022/07/28 09:52:31;;;;;;;1999.90;999.90;;;;;;;30.12;75.43;95142.00;5096061;28;20179;-63
2022/07/28 09:55:01;;;;;;;1999.90;999.90;;;;;;;31.11;71.37;95134.53;5096056;28;20198;-63
2022/07/28 09:57:27;;;;;;;1999.90;999.90;;;;;;;30.50;71.03;95144.16;5096051;28;20206;-68
2022/07/28 09:59:53;;;;;;;1999.90;999.90;;;;;;;29.73;78.27;95125.72;5095772;28;20240;-64
2022/07/28 10:02:30;;;;;;;1999.90;999.90;;;;;;;29.09;80.44;95131.72;5096013;28;20188;-65
2022/07/28 10:04:58;;;;;;;1999.90;999.90;;;;;;;29.52;80.92;95135.97;5095861;28;20203;-60
2022/07/28 10:07:27;;;;;;;1999.90;999.90;;;;;;;30.11;74.46;95135.59;5095917;28;20176;-64
2022/07/28 10:10:06;;;;;;;1999.90;999.90;;;;;;;29.58;76.46;95133.09;5096672;28;20204;-66
2022/07/28 10:12:36;;;;;;;1999.90;999.90;;;;;;;30.67;71.13;95146.69;5099349;28;20184;-61
2022/07/28 10:17:58;;;;;;;1999.90;999.90;;;;;;;30.13;75.27;95120.97;5118073;28;20199;-63
2022/07/28 10:20:25;;;;;;;1999.90;999.90;;;;;;;30.92;71.31;95126.19;5099188;28;20184;-62
2022/07/28 10:22:51;;;;;;;1999.90;999.90;;;;;;;31.89;66.30;95128.72;5099333;28;20208;-64
2022/07/28 10:25:20;;;;;;;1999.90;999.90;;;;;;;31.32;66.34;95132.59;5099002;28;20268;-63
2022/07/28 10:27:48;;;;;;;1999.90;999.90;;;;;;;30.93;71.83;95118.50;5099173;28;20229;-70
2022/07/28 10:30:14;;;;;;;1999.90;999.90;;;;;;;30.24;71.98;95123.63;5117131;28;20188;-65
2022/07/28 10:32:43;;;;;;;1999.90;999.90;;;;;;;28.73;80.31;95121.91;5099139;28;20239;-63
2022/07/28 10:35:16;;;;;;;1999.90;999.90;;;;;;;29.87;73.90;95126.53;5099557;28;20226;-62
2022/07/28 10:37:53;;;;;;;1999.90;999.90;;;;;;;28.07;82.47;95115.66;5099456;28;20180;-62
2022/07/28 10:40:23;;;;;;;1999.90;999.90;;;;;;;29.27;77.04;95120.47;5099289;28;20197;-72
2022/07/28 10:42:50;;;;;;;1999.90;999.90;;;;;;;28.02;83.82;95124.13;5098818;28;20180;-69
2022/07/28 10:45:16;;;;;;;1999.90;999.90;;;;;;;29.58;77.43;95116.19;5099359;28;20223;-68
2022/07/28 10:47:44;;;;;;;1999.90;999.90;;;;;;;29.09;76.74;95109.22;5098646;28;20184;-64
2022/07/28 10:50:09;;;;;;;1999.90;999.90;;;;;;;30.30;70.87;95122.22;5099010;28;20272;-63
2022/07/28 10:52:37;;;;;;;1999.90;999.90;;;;;;;29.86;73.94;95114.47;5098846;28;20184;-65
2022/07/28 10:55:29;;;;;;;1999.90;999.90;;;;;;;29.49;76.37;95125.03;5098597;28;20237;-64